sensor_id;sensor_type;location;lat;lon;timestamp;P1;durP1;ratioP1;P2;durP2;ratioP2
34643;SDS011;26931;43.498;-1.506;2023-06-10T00:01:44;6.63;;;4.88;;
34643;SDS011;26931;43.498;-1.506;2023-06-10T00:04:15;6.85;;;4.82;;
34643;SDS011;26931;43.498;-1.506;2023-06-10T00:06:44;8.98;;;5.50;;
34643;SDS011;26931;43.498;-1.506;2023-06-10T00:09:10;5.80;;;4.80;;
34643;SDS011;26931;43.498;-1.506;2023-06-10T00:11:36;8.13;;;5.00;;
34643;SDS011;26931;43.498;-1.506;2023-06-10T00:14:02;8.38;;;4.95;;
34643;SDS011;26931;43.498;-1.506;2023-06-10T00:16:28;7.03;;;4.40;;
34643;SDS011;26931;43.498;-1.506;2023-06-10T00:18:55;5.82;;;4.13;;
34643;SDS011;26931;43.498;-1.506;2023-06-10T00:21:25;9.20;;;4.72;;
34643;SDS011;26931;43.498;-1.506;2023-06-10T00:23:51;6.88;;;4.75;;
34643;SDS011;26931;43.498;-1.506;2023-06-10T00:26:17;6.90;;;4.35;;
34643;SDS011;26931;43.498;-1.506;2023-06-10T00:28:42;6.72;;;4.88;;
34643;SDS011;26931;43.498;-1.506;2023-06-10T00:31:10;9.05;;;5.20;;
34643;SDS011;26931;43.498;-1.506;2023-06-10T00:33:36;6.85;;;4.82;;
34643;SDS011;26931;43.498;-1.506;2023-06-10T00:36:01;8.18;;;5.00;;
34643;SDS011;26931;43.498;-1.506;2023-06-10T00:38:27;7.57;;;5.22;;
34643;SDS011;26931;43.498;-1.506;2023-06-10T00:40:54;8.40;;;5.20;;
34643;SDS011;26931;43.498;-1.506;2023-06-10T00:43:20;8.70;;;5.30;;
34643;SDS011;26931;43.498;-1.506;2023-06-10T00:45:46;8.48;;;4.85;;
34643;SDS011;26931;43.498;-1.506;2023-06-10T00:48:14;11.48;;;5.25;;
34643;SDS011;26931;43.498;-1.506;2023-06-10T00:50:40;10.48;;;5.18;;
34643;SDS011;26931;43.498;-1.506;2023-06-10T00:53:06;9.77;;;4.85;;
34643;SDS011;26931;43.498;-1.506;2023-06-10T00:55:33;6.05;;;4.30;;
34643;SDS011;26931;43.498;-1.506;2023-06-10T00:57:59;6.40;;;4.40;;
34643;SDS011;26931;43.498;-1.506;2023-06-10T01:00:25;7.35;;;5.03;;
34643;SDS011;26931;43.498;-1.506;2023-06-10T01:02:51;5.85;;;4.32;;
34643;SDS011;26931;43.498;-1.506;2023-06-10T01:05:18;6.85;;;4.20;;
34643;SDS011;26931;43.498;-1.506;2023-06-10T01:13:11;7.50;;;3.83;;
34643;SDS011;26931;43.498;-1.506;2023-06-10T01:15:38;6.22;;;3.90;;
34643;SDS011;26931;43.498;-1.506;2023-06-10T01:18:08;6.10;;;3.83;;
34643;SDS011;26931;43.498;-1.506;2023-06-10T01:20:40;7.35;;;3.90;;
34643;SDS011;26931;43.498;-1.506;2023-06-10T01:23:06;5.43;;;3.90;;
34643;SDS011;26931;43.498;-1.506;2023-06-10T01:25:33;6.25;;;3.58;;
34643;SDS011;26931;43.498;-1.506;2023-06-10T01:33:33;5.70;;;3.78;;
34643;SDS011;26931;43.498;-1.506;2023-06-10T01:36:01;5.03;;;3.42;;
34643;SDS011;26931;43.498;-1.506;2023-06-10T01:38:30;6.90;;;3.67;;
34643;SDS011;26931;43.498;-1.506;2023-06-10T01:40:58;6.50;;;3.85;;
34643;SDS011;26931;43.498;-1.506;2023-06-10T01:43:26;4.80;;;3.65;;
34643;SDS011;26931;43.498;-1.506;2023-06-10T01:45:52;4.95;;;3.50;;
34643;SDS011;26931;43.498;-1.506;2023-06-10T01:48:17;4.97;;;4.00;;
34643;SDS011;26931;43.498;-1.506;2023-06-10T01:50:43;4.15;;;3.63;;
34643;SDS011;26931;43.498;-1.506;2023-06-10T01:53:09;4.63;;;3.45;;
34643;SDS011;26931;43.498;-1.506;2023-06-10T01:55:35;5.82;;;3.42;;
34643;SDS011;26931;43.498;-1.506;2023-06-10T01:58:00;5.18;;;3.00;;
34643;SDS011;26931;43.498;-1.506;2023-06-10T02:00:26;5.13;;;3.28;;
34643;SDS011;26931;43.498;-1.506;2023-06-10T02:02:52;3.38;;;2.78;;
34643;SDS011;26931;43.498;-1.506;2023-06-10T02:05:18;4.25;;;3.28;;
34643;SDS011;26931;43.498;-1.506;2023-06-10T02:07:44;4.32;;;3.30;;
34643;SDS011;26931;43.498;-1.506;2023-06-10T02:10:10;3.92;;;2.85;;
34643;SDS011;26931;43.498;-1.506;2023-06-10T02:12:36;4.00;;;2.70;;
34643;SDS011;26931;43.498;-1.506;2023-06-10T02:15:02;4.28;;;3.05;;
34643;SDS011;26931;43.498;-1.506;2023-06-10T02:17:28;5.32;;;3.17;;
34643;SDS011;26931;43.498;-1.506;2023-06-10T02:19:55;3.53;;;2.72;;
34643;SDS011;26931;43.498;-1.506;2023-06-10T02:22:22;4.20;;;3.00;;
34643;SDS011;26931;43.498;-1.506;2023-06-10T02:24:48;4.55;;;2.70;;
34643;SDS011;26931;43.498;-1.506;2023-06-10T02:27:15;9.45;;;3.10;;
34643;SDS011;26931;43.498;-1.506;2023-06-10T02:29:40;4.03;;;3.15;;
34643;SDS011;26931;43.498;-1.506;2023-06-10T02:32:07;3.15;;;2.53;;
34643;SDS011;26931;43.498;-1.506;2023-06-10T02:34:33;3.85;;;2.58;;
34643;SDS011;26931;43.498;-1.506;2023-06-10T02:36:59;3.38;;;2.70;;
34643;SDS011;26931;43.498;-1.506;2023-06-10T02:39:26;3.47;;;2.75;;
34643;SDS011;26931;43.498;-1.506;2023-06-10T02:41:52;6.45;;;2.90;;
34643;SDS011;26931;43.498;-1.506;2023-06-10T02:44:18;5.30;;;3.00;;
34643;SDS011;26931;43.498;-1.506;2023-06-10T02:46:44;5.40;;;2.92;;
34643;SDS011;26931;43.498;-1.506;2023-06-10T02:49:10;5.75;;;2.85;;
34643;SDS011;26931;43.498;-1.506;2023-06-10T02:51:36;5.93;;;2.67;;
34643;SDS011;26931;43.498;-1.506;2023-06-10T02:54:02;5.03;;;3.08;;
34643;SDS011;26931;43.498;-1.506;2023-06-10T02:56:28;6.93;;;2.97;;
34643;SDS011;26931;43.498;-1.506;2023-06-10T02:58:54;4.00;;;2.60;;
34643;SDS011;26931;43.498;-1.506;2023-06-10T03:01:20;4.68;;;2.80;;
34643;SDS011;26931;43.498;-1.506;2023-06-10T03:03:46;5.82;;;2.88;;
34643;SDS011;26931;43.498;-1.506;2023-06-10T03:06:13;4.72;;;2.60;;
34643;SDS011;26931;43.498;-1.506;2023-06-10T03:08:42;3.65;;;2.28;;
34643;SDS011;26931;43.498;-1.506;2023-06-10T03:11:08;3.65;;;2.83;;
34643;SDS011;26931;43.498;-1.506;2023-06-10T03:13:33;4.40;;;3.03;;
34643;SDS011;26931;43.498;-1.506;2023-06-10T03:15:59;3.33;;;3.03;;
34643;SDS011;26931;43.498;-1.506;2023-06-10T03:18:26;5.88;;;3.40;;
34643;SDS011;26931;43.498;-1.506;2023-06-10T03:20:53;3.92;;;2.75;;
34643;SDS011;26931;43.498;-1.506;2023-06-10T03:23:20;5.88;;;2.92;;
34643;SDS011;26931;43.498;-1.506;2023-06-10T03:25:46;5.10;;;2.80;;
34643;SDS011;26931;43.498;-1.506;2023-06-10T03:28:11;3.10;;;2.80;;
34643;SDS011;26931;43.498;-1.506;2023-06-10T03:30:37;5.07;;;2.80;;
34643;SDS011;26931;43.498;-1.506;2023-06-10T03:33:03;6.03;;;3.17;;
34643;SDS011;26931;43.498;-1.506;2023-06-10T03:35:32;4.53;;;2.70;;
34643;SDS011;26931;43.498;-1.506;2023-06-10T03:37:58;4.60;;;2.92;;
34643;SDS011;26931;43.498;-1.506;2023-06-10T03:40:24;5.30;;;2.95;;
34643;SDS011;26931;43.498;-1.506;2023-06-10T03:42:49;8.40;;;3.05;;
34643;SDS011;26931;43.498;-1.506;2023-06-10T03:45:15;2.80;;;2.60;;
34643;SDS011;26931;43.498;-1.506;2023-06-10T03:47:41;4.50;;;2.65;;
34643;SDS011;26931;43.498;-1.506;2023-06-10T03:50:08;4.25;;;2.60;;
34643;SDS011;26931;43.498;-1.506;2023-06-10T03:52:35;7.00;;;2.60;;
34643;SDS011;26931;43.498;-1.506;2023-06-10T03:55:04;4.55;;;2.92;;
34643;SDS011;26931;43.498;-1.506;2023-06-10T03:57:30;3.72;;;2.60;;
34643;SDS011;26931;43.498;-1.506;2023-06-10T03:59:56;4.57;;;2.80;;
34643;SDS011;26931;43.498;-1.506;2023-06-10T04:02:21;4.40;;;2.63;;
34643;SDS011;26931;43.498;-1.506;2023-06-10T04:04:48;4.43;;;2.90;;
34643;SDS011;26931;43.498;-1.506;2023-06-10T04:07:14;5.80;;;3.08;;
34643;SDS011;26931;43.498;-1.506;2023-06-10T04:09:39;3.70;;;2.70;;
34643;SDS011;26931;43.498;-1.506;2023-06-10T04:12:05;4.78;;;2.67;;
34643;SDS011;26931;43.498;-1.506;2023-06-10T04:14:34;3.35;;;2.53;;
34643;SDS011;26931;43.498;-1.506;2023-06-10T04:17:02;3.92;;;3.00;;
34643;SDS011;26931;43.498;-1.506;2023-06-10T04:19:31;3.15;;;2.67;;
34643;SDS011;26931;43.498;-1.506;2023-06-10T04:21:58;3.90;;;2.70;;
34643;SDS011;26931;43.498;-1.506;2023-06-10T04:24:25;5.63;;;2.90;;
34643;SDS011;26931;43.498;-1.506;2023-06-10T04:26:52;7.32;;;3.10;;
34643;SDS011;26931;43.498;-1.506;2023-06-10T04:29:18;3.95;;;2.85;;
34643;SDS011;26931;43.498;-1.506;2023-06-10T04:31:43;5.28;;;2.80;;
34643;SDS011;26931;43.498;-1.506;2023-06-10T04:34:11;5.97;;;3.10;;
34643;SDS011;26931;43.498;-1.506;2023-06-10T04:36:37;3.88;;;2.97;;
34643;SDS011;26931;43.498;-1.506;2023-06-10T04:39:03;4.85;;;3.05;;
34643;SDS011;26931;43.498;-1.506;2023-06-10T04:41:31;5.07;;;3.38;;
34643;SDS011;26931;43.498;-1.506;2023-06-10T04:43:56;4.53;;;2.92;;
34643;SDS011;26931;43.498;-1.506;2023-06-10T04:46:23;4.63;;;3.00;;
34643;SDS011;26931;43.498;-1.506;2023-06-10T04:48:49;4.65;;;2.92;;
34643;SDS011;26931;43.498;-1.506;2023-06-10T04:51:15;4.05;;;2.83;;
34643;SDS011;26931;43.498;-1.506;2023-06-10T04:53:42;3.83;;;3.17;;
34643;SDS011;26931;43.498;-1.506;2023-06-10T04:56:08;4.63;;;3.10;;
34643;SDS011;26931;43.498;-1.506;2023-06-10T04:58:34;3.97;;;2.80;;
34643;SDS011;26931;43.498;-1.506;2023-06-10T05:01:00;3.95;;;3.03;;
34643;SDS011;26931;43.498;-1.506;2023-06-10T05:03:27;5.75;;;2.97;;
34643;SDS011;26931;43.498;-1.506;2023-06-10T05:05:53;5.57;;;3.00;;
34643;SDS011;26931;43.498;-1.506;2023-06-10T05:08:19;5.10;;;3.35;;
34643;SDS011;26931;43.498;-1.506;2023-06-10T05:10:46;5.07;;;3.47;;
34643;SDS011;26931;43.498;-1.506;2023-06-10T05:13:12;4.72;;;3.13;;
34643;SDS011;26931;43.498;-1.506;2023-06-10T05:15:37;5.38;;;3.20;;
34643;SDS011;26931;43.498;-1.506;2023-06-10T05:18:04;5.38;;;3.38;;
34643;SDS011;26931;43.498;-1.506;2023-06-10T05:20:30;4.22;;;3.03;;
34643;SDS011;26931;43.498;-1.506;2023-06-10T05:22:56;5.28;;;3.20;;
34643;SDS011;26931;43.498;-1.506;2023-06-10T05:25:22;4.68;;;3.28;;
34643;SDS011;26931;43.498;-1.506;2023-06-10T05:27:48;3.97;;;3.05;;
34643;SDS011;26931;43.498;-1.506;2023-06-10T05:30:14;8.98;;;2.80;;
34643;SDS011;26931;43.498;-1.506;2023-06-10T05:32:41;3.80;;;3.20;;
34643;SDS011;26931;43.498;-1.506;2023-06-10T05:35:08;6.03;;;3.33;;
34643;SDS011;26931;43.498;-1.506;2023-06-10T05:37:34;7.45;;;3.85;;
34643;SDS011;26931;43.498;-1.506;2023-06-10T05:40:02;5.43;;;2.92;;
34643;SDS011;26931;43.498;-1.506;2023-06-10T05:42:29;4.60;;;2.80;;
34643;SDS011;26931;43.498;-1.506;2023-06-10T05:44:56;5.22;;;2.92;;
34643;SDS011;26931;43.498;-1.506;2023-06-10T05:47:22;4.03;;;3.03;;
34643;SDS011;26931;43.498;-1.506;2023-06-10T05:49:48;4.57;;;2.55;;
34643;SDS011;26931;43.498;-1.506;2023-06-10T05:52:16;4.28;;;2.53;;
34643;SDS011;26931;43.498;-1.506;2023-06-10T05:54:43;3.50;;;2.70;;
34643;SDS011;26931;43.498;-1.506;2023-06-10T05:57:09;3.83;;;2.83;;
34643;SDS011;26931;43.498;-1.506;2023-06-10T05:59:35;4.05;;;2.47;;
34643;SDS011;26931;43.498;-1.506;2023-06-10T06:02:01;3.67;;;3.00;;
34643;SDS011;26931;43.498;-1.506;2023-06-10T06:04:27;4.80;;;2.88;;
34643;SDS011;26931;43.498;-1.506;2023-06-10T06:06:53;5.45;;;3.08;;
34643;SDS011;26931;43.498;-1.506;2023-06-10T06:09:19;3.35;;;2.40;;
34643;SDS011;26931;43.498;-1.506;2023-06-10T06:11:45;5.45;;;2.88;;
34643;SDS011;26931;43.498;-1.506;2023-06-10T06:14:11;4.28;;;3.03;;
34643;SDS011;26931;43.498;-1.506;2023-06-10T06:16:38;6.00;;;3.20;;
34643;SDS011;26931;43.498;-1.506;2023-06-10T06:19:04;6.80;;;3.10;;
34643;SDS011;26931;43.498;-1.506;2023-06-10T06:21:30;3.40;;;2.55;;
34643;SDS011;26931;43.498;-1.506;2023-06-10T06:23:56;6.20;;;3.58;;
34643;SDS011;26931;43.498;-1.506;2023-06-10T06:26:22;6.22;;;3.95;;
34643;SDS011;26931;43.498;-1.506;2023-06-10T06:28:49;4.88;;;3.28;;
34643;SDS011;26931;43.498;-1.506;2023-06-10T06:31:15;3.13;;;2.80;;
34643;SDS011;26931;43.498;-1.506;2023-06-10T06:33:41;6.85;;;2.95;;
34643;SDS011;26931;43.498;-1.506;2023-06-10T06:36:07;3.30;;;2.85;;
34643;SDS011;26931;43.498;-1.506;2023-06-10T06:38:33;4.10;;;2.92;;
34643;SDS011;26931;43.498;-1.506;2023-06-10T06:40:59;6.68;;;2.88;;
34643;SDS011;26931;43.498;-1.506;2023-06-10T06:43:30;3.72;;;2.83;;
34643;SDS011;26931;43.498;-1.506;2023-06-10T06:45:56;3.85;;;2.92;;
34643;SDS011;26931;43.498;-1.506;2023-06-10T06:48:23;3.53;;;2.65;;
34643;SDS011;26931;43.498;-1.506;2023-06-10T06:50:49;6.50;;;3.20;;
34643;SDS011;26931;43.498;-1.506;2023-06-10T06:53:15;5.32;;;3.15;;
34643;SDS011;26931;43.498;-1.506;2023-06-10T06:55:41;6.22;;;2.80;;
34643;SDS011;26931;43.498;-1.506;2023-06-10T06:58:07;6.03;;;2.92;;
34643;SDS011;26931;43.498;-1.506;2023-06-10T07:00:33;7.90;;;2.90;;
34643;SDS011;26931;43.498;-1.506;2023-06-10T07:02:59;4.57;;;2.60;;
34643;SDS011;26931;43.498;-1.506;2023-06-10T07:05:25;4.25;;;2.90;;
34643;SDS011;26931;43.498;-1.506;2023-06-10T07:07:53;9.02;;;3.03;;
34643;SDS011;26931;43.498;-1.506;2023-06-10T07:10:24;3.92;;;2.90;;
34643;SDS011;26931;43.498;-1.506;2023-06-10T07:12:50;3.55;;;2.65;;
34643;SDS011;26931;43.498;-1.506;2023-06-10T07:15:16;2.55;;;2.35;;
34643;SDS011;26931;43.498;-1.506;2023-06-10T07:17:42;4.85;;;2.72;;
34643;SDS011;26931;43.498;-1.506;2023-06-10T07:20:08;4.93;;;2.63;;
34643;SDS011;26931;43.498;-1.506;2023-06-10T07:22:34;3.25;;;2.80;;
34643;SDS011;26931;43.498;-1.506;2023-06-10T07:25:00;6.63;;;3.55;;
34643;SDS011;26931;43.498;-1.506;2023-06-10T07:27:26;4.90;;;3.42;;
34643;SDS011;26931;43.498;-1.506;2023-06-10T07:29:52;7.68;;;3.60;;
34643;SDS011;26931;43.498;-1.506;2023-06-10T07:32:18;6.15;;;3.60;;
34643;SDS011;26931;43.498;-1.506;2023-06-10T07:34:47;4.05;;;3.65;;
34643;SDS011;26931;43.498;-1.506;2023-06-10T07:37:13;5.32;;;3.70;;
34643;SDS011;26931;43.498;-1.506;2023-06-10T07:39:39;4.25;;;3.70;;
34643;SDS011;26931;43.498;-1.506;2023-06-10T07:42:05;3.83;;;3.42;;
34643;SDS011;26931;43.498;-1.506;2023-06-10T07:44:31;5.95;;;3.72;;
34643;SDS011;26931;43.498;-1.506;2023-06-10T07:46:57;4.20;;;3.80;;
34643;SDS011;26931;43.498;-1.506;2023-06-10T07:49:23;5.50;;;3.40;;
34643;SDS011;26931;43.498;-1.506;2023-06-10T07:51:49;5.00;;;3.45;;
34643;SDS011;26931;43.498;-1.506;2023-06-10T07:54:16;7.05;;;4.15;;
34643;SDS011;26931;43.498;-1.506;2023-06-10T07:56:41;4.38;;;3.80;;
34643;SDS011;26931;43.498;-1.506;2023-06-10T07:59:07;9.45;;;4.35;;
34643;SDS011;26931;43.498;-1.506;2023-06-10T08:01:33;7.03;;;4.25;;
34643;SDS011;26931;43.498;-1.506;2023-06-10T08:04:01;8.88;;;4.28;;
34643;SDS011;26931;43.498;-1.506;2023-06-10T08:06:28;6.35;;;3.88;;
34643;SDS011;26931;43.498;-1.506;2023-06-10T08:08:55;6.85;;;4.15;;
34643;SDS011;26931;43.498;-1.506;2023-06-10T08:11:21;9.52;;;4.30;;
34643;SDS011;26931;43.498;-1.506;2023-06-10T08:13:47;8.20;;;4.75;;
34643;SDS011;26931;43.498;-1.506;2023-06-10T08:16:12;12.70;;;4.82;;
34643;SDS011;26931;43.498;-1.506;2023-06-10T08:18:38;8.15;;;4.65;;
34643;SDS011;26931;43.498;-1.506;2023-06-10T08:21:04;7.45;;;4.85;;
34643;SDS011;26931;43.498;-1.506;2023-06-10T08:23:30;10.05;;;4.78;;
34643;SDS011;26931;43.498;-1.506;2023-06-10T08:25:56;6.13;;;4.30;;
34643;SDS011;26931;43.498;-1.506;2023-06-10T08:28:23;6.63;;;4.80;;
34643;SDS011;26931;43.498;-1.506;2023-06-10T08:30:49;7.30;;;4.80;;
34643;SDS011;26931;43.498;-1.506;2023-06-10T08:33:15;7.60;;;4.63;;
34643;SDS011;26931;43.498;-1.506;2023-06-10T08:35:41;7.85;;;4.05;;
34643;SDS011;26931;43.498;-1.506;2023-06-10T08:38:07;5.75;;;4.30;;
34643;SDS011;26931;43.498;-1.506;2023-06-10T08:40:33;6.90;;;4.32;;
34643;SDS011;26931;43.498;-1.506;2023-06-10T08:43:06;8.20;;;4.40;;
34643;SDS011;26931;43.498;-1.506;2023-06-10T08:45:34;6.82;;;4.82;;
34643;SDS011;26931;43.498;-1.506;2023-06-10T08:48:05;9.32;;;4.32;;
34643;SDS011;26931;43.498;-1.506;2023-06-10T08:50:34;9.40;;;4.47;;
34643;SDS011;26931;43.498;-1.506;2023-06-10T08:53:04;6.88;;;4.40;;
34643;SDS011;26931;43.498;-1.506;2023-06-10T08:55:32;9.07;;;4.88;;
34643;SDS011;26931;43.498;-1.506;2023-06-10T08:58:01;7.05;;;3.97;;
34643;SDS011;26931;43.498;-1.506;2023-06-10T09:00:28;5.45;;;3.67;;
34643;SDS011;26931;43.498;-1.506;2023-06-10T09:02:55;4.68;;;4.07;;
34643;SDS011;26931;43.498;-1.506;2023-06-10T09:05:22;5.45;;;3.45;;
34643;SDS011;26931;43.498;-1.506;2023-06-10T09:07:48;5.53;;;3.75;;
34643;SDS011;26931;43.498;-1.506;2023-06-10T09:10:15;4.70;;;3.95;;
34643;SDS011;26931;43.498;-1.506;2023-06-10T09:12:41;6.07;;;3.50;;
34643;SDS011;26931;43.498;-1.506;2023-06-10T09:15:07;5.88;;;3.45;;
34643;SDS011;26931;43.498;-1.506;2023-06-10T09:17:34;5.38;;;3.20;;
34643;SDS011;26931;43.498;-1.506;2023-06-10T09:20:01;7.70;;;3.55;;
34643;SDS011;26931;43.498;-1.506;2023-06-10T09:22:27;6.20;;;3.72;;
34643;SDS011;26931;43.498;-1.506;2023-06-10T09:25:07;6.82;;;4.28;;
34643;SDS011;26931;43.498;-1.506;2023-06-10T09:27:47;7.87;;;4.70;;
34643;SDS011;26931;43.498;-1.506;2023-06-10T09:30:33;8.10;;;3.70;;
34643;SDS011;26931;43.498;-1.506;2023-06-10T09:33:01;4.63;;;3.95;;
34643;SDS011;26931;43.498;-1.506;2023-06-10T09:35:29;8.13;;;3.75;;
34643;SDS011;26931;43.498;-1.506;2023-06-10T09:37:59;4.18;;;3.70;;
34643;SDS011;26931;43.498;-1.506;2023-06-10T09:40:27;5.40;;;3.90;;
34643;SDS011;26931;43.498;-1.506;2023-06-10T09:42:54;4.28;;;3.88;;
34643;SDS011;26931;43.498;-1.506;2023-06-10T09:45:31;4.95;;;3.90;;
34643;SDS011;26931;43.498;-1.506;2023-06-10T09:47:57;5.25;;;3.92;;
34643;SDS011;26931;43.498;-1.506;2023-06-10T09:50:23;5.32;;;3.90;;
34643;SDS011;26931;43.498;-1.506;2023-06-10T09:52:49;12.90;;;4.70;;
34643;SDS011;26931;43.498;-1.506;2023-06-10T09:55:16;4.00;;;3.60;;
34643;SDS011;26931;43.498;-1.506;2023-06-10T09:57:43;8.05;;;3.85;;
34643;SDS011;26931;43.498;-1.506;2023-06-10T10:00:13;6.72;;;3.95;;
34643;SDS011;26931;43.498;-1.506;2023-06-10T10:02:47;4.57;;;4.07;;
34643;SDS011;26931;43.498;-1.506;2023-06-10T10:05:15;6.15;;;4.32;;
34643;SDS011;26931;43.498;-1.506;2023-06-10T10:07:43;7.35;;;4.13;;
34643;SDS011;26931;43.498;-1.506;2023-06-10T10:10:09;4.13;;;3.70;;
34643;SDS011;26931;43.498;-1.506;2023-06-10T10:12:40;6.40;;;3.38;;
34643;SDS011;26931;43.498;-1.506;2023-06-10T10:15:10;4.32;;;3.70;;
34643;SDS011;26931;43.498;-1.506;2023-06-10T10:17:40;5.05;;;3.72;;
34643;SDS011;26931;43.498;-1.506;2023-06-10T10:20:12;4.85;;;3.80;;
34643;SDS011;26931;43.498;-1.506;2023-06-10T10:22:42;5.95;;;3.78;;
34643;SDS011;26931;43.498;-1.506;2023-06-10T10:25:23;4.68;;;3.60;;
34643;SDS011;26931;43.498;-1.506;2023-06-10T10:27:55;5.72;;;3.88;;
34643;SDS011;26931;43.498;-1.506;2023-06-10T10:30:24;4.32;;;3.83;;
34643;SDS011;26931;43.498;-1.506;2023-06-10T10:35:26;4.30;;;3.90;;
34643;SDS011;26931;43.498;-1.506;2023-06-10T10:37:52;4.18;;;3.30;;
34643;SDS011;26931;43.498;-1.506;2023-06-10T10:40:22;4.18;;;3.33;;
34643;SDS011;26931;43.498;-1.506;2023-06-10T10:42:50;5.43;;;3.50;;
34643;SDS011;26931;43.498;-1.506;2023-06-10T10:45:16;3.75;;;3.42;;
34643;SDS011;26931;43.498;-1.506;2023-06-10T10:47:43;4.18;;;3.30;;
34643;SDS011;26931;43.498;-1.506;2023-06-10T10:50:18;5.10;;;3.33;;
34643;SDS011;26931;43.498;-1.506;2023-06-10T10:53:04;4.13;;;3.67;;
34643;SDS011;26931;43.498;-1.506;2023-06-10T10:55:30;3.60;;;3.03;;
34643;SDS011;26931;43.498;-1.506;2023-06-10T10:57:57;3.53;;;3.10;;
34643;SDS011;26931;43.498;-1.506;2023-06-10T11:00:32;3.97;;;3.35;;
34643;SDS011;26931;43.498;-1.506;2023-06-10T11:03:04;3.55;;;2.90;;
34643;SDS011;26931;43.498;-1.506;2023-06-10T11:05:35;4.03;;;3.60;;
34643;SDS011;26931;43.498;-1.506;2023-06-10T11:08:07;5.35;;;3.67;;
34643;SDS011;26931;43.498;-1.506;2023-06-10T11:10:36;4.43;;;3.60;;
34643;SDS011;26931;43.498;-1.506;2023-06-10T11:13:09;4.05;;;3.70;;
34643;SDS011;26931;43.498;-1.506;2023-06-10T11:15:47;3.80;;;3.50;;
34643;SDS011;26931;43.498;-1.506;2023-06-10T11:18:19;5.93;;;3.78;;
34643;SDS011;26931;43.498;-1.506;2023-06-10T11:28:37;8.50;;;3.40;;
34643;SDS011;26931;43.498;-1.506;2023-06-10T11:31:04;3.92;;;3.45;;
34643;SDS011;26931;43.498;-1.506;2023-06-10T11:33:29;4.40;;;3.83;;
34643;SDS011;26931;43.498;-1.506;2023-06-10T11:35:56;4.43;;;3.70;;
34643;SDS011;26931;43.498;-1.506;2023-06-10T11:38:23;4.60;;;3.58;;
34643;SDS011;26931;43.498;-1.506;2023-06-10T11:40:50;5.95;;;3.90;;
34643;SDS011;26931;43.498;-1.506;2023-06-10T11:43:19;9.77;;;7.30;;
34643;SDS011;26931;43.498;-1.506;2023-06-10T11:45:45;16.17;;;12.57;;
34643;SDS011;26931;43.498;-1.506;2023-06-10T11:48:12;14.15;;;11.48;;
34643;SDS011;26931;43.498;-1.506;2023-06-10T11:50:38;9.93;;;7.85;;
34643;SDS011;26931;43.498;-1.506;2023-06-10T11:53:04;5.90;;;5.10;;
34643;SDS011;26931;43.498;-1.506;2023-06-10T11:58:15;4.97;;;3.90;;
34643;SDS011;26931;43.498;-1.506;2023-06-10T12:03:15;4.40;;;3.50;;
34643;SDS011;26931;43.498;-1.506;2023-06-10T12:05:54;3.70;;;3.10;;
34643;SDS011;26931;43.498;-1.506;2023-06-10T12:08:27;3.60;;;3.00;;
34643;SDS011;26931;43.498;-1.506;2023-06-10T12:10:53;3.85;;;3.00;;
34643;SDS011;26931;43.498;-1.506;2023-06-10T12:13:20;3.15;;;2.80;;
34643;SDS011;26931;43.498;-1.506;2023-06-10T12:15:48;4.50;;;2.50;;
34643;SDS011;26931;43.498;-1.506;2023-06-10T12:18:17;2.83;;;2.25;;
34643;SDS011;26931;43.498;-1.506;2023-06-10T12:20:43;3.70;;;2.85;;
34643;SDS011;26931;43.498;-1.506;2023-06-10T12:23:09;2.83;;;2.63;;
34643;SDS011;26931;43.498;-1.506;2023-06-10T12:25:36;5.03;;;2.63;;
34643;SDS011;26931;43.498;-1.506;2023-06-10T12:28:03;3.42;;;3.13;;
34643;SDS011;26931;43.498;-1.506;2023-06-10T12:30:29;3.08;;;2.80;;
34643;SDS011;26931;43.498;-1.506;2023-06-10T12:32:56;7.35;;;4.75;;
34643;SDS011;26931;43.498;-1.506;2023-06-10T12:35:22;7.50;;;5.88;;
34643;SDS011;26931;43.498;-1.506;2023-06-10T12:37:59;4.82;;;4.03;;
34643;SDS011;26931;43.498;-1.506;2023-06-10T12:40:30;3.58;;;3.28;;
34643;SDS011;26931;43.498;-1.506;2023-06-10T12:42:57;3.33;;;2.90;;
34643;SDS011;26931;43.498;-1.506;2023-06-10T12:45:27;5.18;;;3.33;;
34643;SDS011;26931;43.498;-1.506;2023-06-10T12:48:07;4.07;;;3.55;;
34643;SDS011;26931;43.498;-1.506;2023-06-10T12:50:36;4.63;;;3.60;;
34643;SDS011;26931;43.498;-1.506;2023-06-10T12:53:06;4.30;;;3.70;;
34643;SDS011;26931;43.498;-1.506;2023-06-10T12:55:32;7.57;;;3.78;;
34643;SDS011;26931;43.498;-1.506;2023-06-10T12:57:59;4.80;;;4.28;;
34643;SDS011;26931;43.498;-1.506;2023-06-10T13:00:26;5.10;;;4.60;;
34643;SDS011;26931;43.498;-1.506;2023-06-10T13:02:55;4.43;;;4.00;;
34643;SDS011;26931;43.498;-1.506;2023-06-10T13:05:21;7.18;;;4.60;;
34643;SDS011;26931;43.498;-1.506;2023-06-10T13:07:48;5.30;;;4.80;;
34643;SDS011;26931;43.498;-1.506;2023-06-10T13:10:14;6.50;;;5.15;;
34643;SDS011;26931;43.498;-1.506;2023-06-10T13:12:42;7.50;;;5.53;;
34643;SDS011;26931;43.498;-1.506;2023-06-10T13:15:08;6.53;;;5.75;;
34643;SDS011;26931;43.498;-1.506;2023-06-10T13:17:34;7.35;;;5.97;;
34643;SDS011;26931;43.498;-1.506;2023-06-10T13:20:02;6.90;;;4.93;;
34643;SDS011;26931;43.498;-1.506;2023-06-10T13:22:30;5.80;;;4.97;;
34643;SDS011;26931;43.498;-1.506;2023-06-10T13:24:58;5.63;;;5.03;;
34643;SDS011;26931;43.498;-1.506;2023-06-10T13:27:24;5.57;;;4.85;;
34643;SDS011;26931;43.498;-1.506;2023-06-10T13:29:50;5.97;;;4.40;;
34643;SDS011;26931;43.498;-1.506;2023-06-10T13:32:16;5.32;;;4.82;;
34643;SDS011;26931;43.498;-1.506;2023-06-10T13:34:41;5.32;;;4.82;;
34643;SDS011;26931;43.498;-1.506;2023-06-10T13:37:07;6.45;;;4.82;;
34643;SDS011;26931;43.498;-1.506;2023-06-10T13:39:33;6.10;;;4.50;;
34643;SDS011;26931;43.498;-1.506;2023-06-10T13:41:58;5.03;;;4.30;;
34643;SDS011;26931;43.498;-1.506;2023-06-10T13:44:24;5.85;;;4.85;;
34643;SDS011;26931;43.498;-1.506;2023-06-10T13:46:50;5.40;;;4.43;;
34643;SDS011;26931;43.498;-1.506;2023-06-10T13:49:16;4.68;;;4.10;;
34643;SDS011;26931;43.498;-1.506;2023-06-10T13:51:42;7.43;;;4.82;;
34643;SDS011;26931;43.498;-1.506;2023-06-10T13:54:07;4.60;;;4.15;;
34643;SDS011;26931;43.498;-1.506;2023-06-10T13:56:33;5.10;;;4.60;;
34643;SDS011;26931;43.498;-1.506;2023-06-10T13:59:03;5.82;;;4.70;;
34643;SDS011;26931;43.498;-1.506;2023-06-10T14:01:29;5.90;;;4.88;;
34643;SDS011;26931;43.498;-1.506;2023-06-10T14:03:54;7.38;;;5.07;;
34643;SDS011;26931;43.498;-1.506;2023-06-10T14:06:20;6.00;;;4.90;;
34643;SDS011;26931;43.498;-1.506;2023-06-10T14:08:46;6.28;;;4.70;;
34643;SDS011;26931;43.498;-1.506;2023-06-10T14:11:12;4.53;;;3.50;;
34643;SDS011;26931;43.498;-1.506;2023-06-10T14:13:37;6.32;;;4.15;;
34643;SDS011;26931;43.498;-1.506;2023-06-10T14:16:04;4.20;;;3.78;;
34643;SDS011;26931;43.498;-1.506;2023-06-10T14:18:29;3.95;;;3.55;;
34643;SDS011;26931;43.498;-1.506;2023-06-10T14:20:55;4.50;;;3.05;;
34643;SDS011;26931;43.498;-1.506;2023-06-10T14:23:21;3.83;;;3.28;;
34643;SDS011;26931;43.498;-1.506;2023-06-10T14:25:47;4.07;;;3.67;;
34643;SDS011;26931;43.498;-1.506;2023-06-10T14:28:12;4.15;;;3.65;;
34643;SDS011;26931;43.498;-1.506;2023-06-10T14:30:38;5.60;;;3.58;;
34643;SDS011;26931;43.498;-1.506;2023-06-10T14:33:04;4.55;;;3.50;;
34643;SDS011;26931;43.498;-1.506;2023-06-10T14:35:30;4.22;;;3.42;;
34643;SDS011;26931;43.498;-1.506;2023-06-10T14:37:56;4.05;;;3.65;;
34643;SDS011;26931;43.498;-1.506;2023-06-10T14:40:22;4.75;;;3.78;;
34643;SDS011;26931;43.498;-1.506;2023-06-10T14:42:49;3.92;;;3.50;;
34643;SDS011;26931;43.498;-1.506;2023-06-10T14:45:15;4.15;;;3.58;;
34643;SDS011;26931;43.498;-1.506;2023-06-10T14:47:41;5.18;;;3.88;;
34643;SDS011;26931;43.498;-1.506;2023-06-10T14:50:06;4.60;;;3.80;;
34643;SDS011;26931;43.498;-1.506;2023-06-10T14:52:33;6.15;;;3.95;;
34643;SDS011;26931;43.498;-1.506;2023-06-10T14:54:58;4.88;;;3.60;;
34643;SDS011;26931;43.498;-1.506;2023-06-10T14:57:24;4.50;;;3.88;;
34643;SDS011;26931;43.498;-1.506;2023-06-10T14:59:50;4.38;;;3.97;;